sensor_id;sensor_type;location;lat;lon;timestamp;P1;P2;P0
73749;PMS7003;62058;48.406;-4.514;2023-04-06T00:01:47;10.67;7.67;7.00
73749;PMS7003;62058;48.406;-4.514;2023-04-06T00:04:12;3.33;3.33;2.67
73749;PMS7003;62058;48.406;-4.514;2023-04-06T00:06:37;5.00;4.50;4.25
73749;PMS7003;62058;48.406;-4.514;2023-04-06T00:09:02;10.33;9.00;8.00
73749;PMS7003;62058;48.406;-4.514;2023-04-06T00:11:27;9.00;9.00;8.00
73749;PMS7003;62058;48.406;-4.514;2023-04-06T00:13:53;10.67;9.33;7.33
73749;PMS7003;62058;48.406;-4.514;2023-04-06T00:16:18;3.33;2.00;1.67
73749;PMS7003;62058;48.406;-4.514;2023-04-06T00:18:43;4.50;4.50;4.50
73749;PMS7003;62058;48.406;-4.514;2023-04-06T00:21:11;11.00;9.33;8.33
73749;PMS7003;62058;48.406;-4.514;2023-04-06T00:23:36;16.50;10.75;10.50
73749;PMS7003;62058;48.406;-4.514;2023-04-06T00:26:01;11.50;10.50;8.00
73749;PMS7003;62058;48.406;-4.514;2023-04-06T00:28:26;12.00;9.67;9.00
73749;PMS7003;62058;48.406;-4.514;2023-04-06T00:30:53;11.00;10.00;7.75
73749;PMS7003;62058;48.406;-4.514;2023-04-06T00:33:20;11.25;11.25;8.00
73749;PMS7003;62058;48.406;-4.514;2023-04-06T00:35:45;4.75;3.75;3.50
73749;PMS7003;62058;48.406;-4.514;2023-04-06T00:38:11;9.33;4.33;4.33
73749;PMS7003;62058;48.406;-4.514;2023-04-06T00:40:36;4.00;2.25;2.25
73749;PMS7003;62058;48.406;-4.514;2023-04-06T00:43:02;11.00;9.33;8.33
73749;PMS7003;62058;48.406;-4.514;2023-04-06T00:45:27;15.33;12.00;10.33
73749;PMS7003;62058;48.406;-4.514;2023-04-06T00:47:53;4.00;3.75;3.25
73749;PMS7003;62058;48.406;-4.514;2023-04-06T00:50:18;7.00;5.25;5.00
73749;PMS7003;62058;48.406;-4.514;2023-04-06T00:52:43;0.75;0.75;0.50
73749;PMS7003;62058;48.406;-4.514;2023-04-06T00:55:09;7.50;7.50;4.75
73749;PMS7003;62058;48.406;-4.514;2023-04-06T00:57:35;12.75;9.25;7.50
73749;PMS7003;62058;48.406;-4.514;2023-04-06T01:00:00;10.00;5.75;5.25
73749;PMS7003;62058;48.406;-4.514;2023-04-06T01:02:26;4.75;2.50;2.25
73749;PMS7003;62058;48.406;-4.514;2023-04-06T01:04:51;4.67;2.00;1.67
73749;PMS7003;62058;48.406;-4.514;2023-04-06T01:07:17;5.25;5.25;5.25
73749;PMS7003;62058;48.406;-4.514;2023-04-06T01:09:42;5.67;5.67;5.00
73749;PMS7003;62058;48.406;-4.514;2023-04-06T01:12:07;11.33;11.00;9.67
73749;PMS7003;62058;48.406;-4.514;2023-04-06T01:14:33;9.75;6.75;5.75
73749;PMS7003;62058;48.406;-4.514;2023-04-06T01:16:58;4.67;4.67;4.67
73749;PMS7003;62058;48.406;-4.514;2023-04-06T01:19:25;6.50;3.75;3.50
73749;PMS7003;62058;48.406;-4.514;2023-04-06T01:21:50;10.67;4.67;4.00
73749;PMS7003;62058;48.406;-4.514;2023-04-06T01:24:18;12.00;8.50;7.25
73749;PMS7003;62058;48.406;-4.514;2023-04-06T01:26:43;9.00;5.33;4.00
73749;PMS7003;62058;48.406;-4.514;2023-04-06T01:29:08;10.50;5.00;5.00
73749;PMS7003;62058;48.406;-4.514;2023-04-06T01:31:33;7.33;5.00;5.00
73749;PMS7003;62058;48.406;-4.514;2023-04-06T01:33:59;6.33;4.00;3.33
73749;PMS7003;62058;48.406;-4.514;2023-04-06T01:36:24;7.00;5.67;4.67
73749;PMS7003;62058;48.406;-4.514;2023-04-06T01:38:50;10.50;7.25;6.50
73749;PMS7003;62058;48.406;-4.514;2023-04-06T01:41:15;4.00;1.75;1.50
73749;PMS7003;62058;48.406;-4.514;2023-04-06T01:43:40;12.00;10.67;7.00
73749;PMS7003;62058;48.406;-4.514;2023-04-06T01:46:05;11.00;8.33;6.00
73749;PMS7003;62058;48.406;-4.514;2023-04-06T01:48:31;8.67;7.33;6.33
73749;PMS7003;62058;48.406;-4.514;2023-04-06T01:50:56;9.75;7.75;7.25
73749;PMS7003;62058;48.406;-4.514;2023-04-06T01:53:21;15.33;13.33;10.00
73749;PMS7003;62058;48.406;-4.514;2023-04-06T01:55:46;6.00;5.00;5.00
73749;PMS7003;62058;48.406;-4.514;2023-04-06T01:58:12;9.50;9.25;8.25
73749;PMS7003;62058;48.406;-4.514;2023-04-06T02:00:37;10.75;8.25;6.50
73749;PMS7003;62058;48.406;-4.514;2023-04-06T02:03:03;8.50;7.25;6.00
73749;PMS7003;62058;48.406;-4.514;2023-04-06T02:05:29;7.75;6.75;5.25
73749;PMS7003;62058;48.406;-4.514;2023-04-06T02:07:55;10.25;8.75;8.00
73749;PMS7003;62058;48.406;-4.514;2023-04-06T02:10:20;7.33;6.33;6.00
73749;PMS7003;62058;48.406;-4.514;2023-04-06T02:12:45;9.00;8.50;7.50
73749;PMS7003;62058;48.406;-4.514;2023-04-06T02:15:11;7.00;7.00;6.00
73749;PMS7003;62058;48.406;-4.514;2023-04-06T02:17:38;7.00;6.75;6.25
73749;PMS7003;62058;48.406;-4.514;2023-04-06T02:20:03;6.67;5.00;4.00
73749;PMS7003;62058;48.406;-4.514;2023-04-06T02:22:28;7.75;6.75;6.50
73749;PMS7003;62058;48.406;-4.514;2023-04-06T02:24:54;3.33;2.67;2.67
73749;PMS7003;62058;48.406;-4.514;2023-04-06T02:27:19;4.75;4.50;4.00
73749;PMS7003;62058;48.406;-4.514;2023-04-06T02:29:44;4.67;4.67;4.67
73749;PMS7003;62058;48.406;-4.514;2023-04-06T02:32:09;4.50;3.00;3.00
73749;PMS7003;62058;48.406;-4.514;2023-04-06T02:34:35;3.33;3.33;3.00
73749;PMS7003;62058;48.406;-4.514;2023-04-06T02:37:00;5.67;5.00;4.33
73749;PMS7003;62058;48.406;-4.514;2023-04-06T02:39:25;3.75;3.00;3.00
73749;PMS7003;62058;48.406;-4.514;2023-04-06T02:41:51;3.00;3.00;2.75
73749;PMS7003;62058;48.406;-4.514;2023-04-06T02:44:16;4.00;3.00;3.00
73749;PMS7003;62058;48.406;-4.514;2023-04-06T02:46:41;8.00;5.00;4.00
73749;PMS7003;62058;48.406;-4.514;2023-04-06T02:49:07;5.67;4.00;4.00
73749;PMS7003;62058;48.406;-4.514;2023-04-06T02:51:32;4.50;4.00;4.00
73749;PMS7003;62058;48.406;-4.514;2023-04-06T02:53:58;6.00;5.00;4.25
73749;PMS7003;62058;48.406;-4.514;2023-04-06T02:56:23;5.25;4.00;3.50
73749;PMS7003;62058;48.406;-4.514;2023-04-06T02:58:48;5.33;4.33;3.67
73749;PMS7003;62058;48.406;-4.514;2023-04-06T03:01:14;5.25;2.00;2.00
73749;PMS7003;62058;48.406;-4.514;2023-04-06T03:03:39;4.00;4.00;4.00
73749;PMS7003;62058;48.406;-4.514;2023-04-06T03:06:05;4.75;3.50;3.00
73749;PMS7003;62058;48.406;-4.514;2023-04-06T03:08:30;2.00;2.00;2.00
73749;PMS7003;62058;48.406;-4.514;2023-04-06T03:10:55;5.33;2.67;2.67
73749;PMS7003;62058;48.406;-4.514;2023-04-06T03:13:21;5.50;4.50;4.50
73749;PMS7003;62058;48.406;-4.514;2023-04-06T03:15:46;5.25;4.25;4.00
73749;PMS7003;62058;48.406;-4.514;2023-04-06T03:18:11;4.50;4.00;4.00
73749;PMS7003;62058;48.406;-4.514;2023-04-06T03:20:37;7.00;5.00;4.00
73749;PMS7003;62058;48.406;-4.514;2023-04-06T03:23:02;6.00;5.67;5.00
73749;PMS7003;62058;48.406;-4.514;2023-04-06T03:25:27;8.67;6.00;6.00
73749;PMS7003;62058;48.406;-4.514;2023-04-06T03:27:52;6.33;4.00;4.00
73749;PMS7003;62058;48.406;-4.514;2023-04-06T03:30:17;9.33;7.00;6.00
73749;PMS7003;62058;48.406;-4.514;2023-04-06T03:32:43;9.00;5.00;5.00
73749;PMS7003;62058;48.406;-4.514;2023-04-06T03:35:08;5.25;4.50;3.25
73749;PMS7003;62058;48.406;-4.514;2023-04-06T03:37:34;8.00;5.25;5.00
73749;PMS7003;62058;48.406;-4.514;2023-04-06T03:39:59;4.75;3.75;3.75
73749;PMS7003;62058;48.406;-4.514;2023-04-06T03:42:25;6.25;5.00;5.00
73749;PMS7003;62058;48.406;-4.514;2023-04-06T03:44:51;4.25;3.50;2.75
73749;PMS7003;62058;48.406;-4.514;2023-04-06T03:47:16;2.00;1.00;1.00
73749;PMS7003;62058;48.406;-4.514;2023-04-06T03:49:42;1.67;0.00;0.00
73749;PMS7003;62058;48.406;-4.514;2023-04-06T03:52:07;0.00;0.00;0.00
73749;PMS7003;62058;48.406;-4.514;2023-04-06T03:54:32;0.00;0.00;0.00
73749;PMS7003;62058;48.406;-4.514;2023-04-06T03:56:57;0.67;0.00;0.00
73749;PMS7003;62058;48.406;-4.514;2023-04-06T03:59:23;0.00;0.00;0.00
73749;PMS7003;62058;48.406;-4.514;2023-04-06T04:01:48;0.00;0.00;0.00
73749;PMS7003;62058;48.406;-4.514;2023-04-06T04:04:13;0.33;0.00;0.00
73749;PMS7003;62058;48.406;-4.514;2023-04-06T04:06:38;3.33;0.00;0.00
73749;PMS7003;62058;48.406;-4.514;2023-04-06T04:09:03;0.00;0.00;0.00
73749;PMS7003;62058;48.406;-4.514;2023-04-06T04:11:29;0.00;0.00;0.00
73749;PMS7003;62058;48.406;-4.514;2023-04-06T04:13:54;1.67;0.00;0.00
73749;PMS7003;62058;48.406;-4.514;2023-04-06T04:16:19;1.50;0.00;0.00
73749;PMS7003;62058;48.406;-4.514;2023-04-06T04:18:44;0.00;0.00;0.00
73749;PMS7003;62058;48.406;-4.514;2023-04-06T04:21:12;0.00;0.00;0.00
73749;PMS7003;62058;48.406;-4.514;2023-04-06T04:23:37;0.00;0.00;0.00
73749;PMS7003;62058;48.406;-4.514;2023-04-06T04:26:02;0.67;0.00;0.00
73749;PMS7003;62058;48.406;-4.514;2023-04-06T04:28:27;2.00;1.00;0.00
73749;PMS7003;62058;48.406;-4.514;2023-04-06T04:30:53;0.50;0.00;0.00
73749;PMS7003;62058;48.406;-4.514;2023-04-06T04:33:18;1.00;0.00;0.00
73749;PMS7003;62058;48.406;-4.514;2023-04-06T04:35:43;0.00;0.00;0.00
73749;PMS7003;62058;48.406;-4.514;2023-04-06T04:38:08;0.00;0.00;0.00
73749;PMS7003;62058;48.406;-4.514;2023-04-06T04:40:34;3.00;1.00;0.75
73749;PMS7003;62058;48.406;-4.514;2023-04-06T04:42:59;0.00;0.00;0.00
73749;PMS7003;62058;48.406;-4.514;2023-04-06T04:45:24;1.75;0.50;0.50
73749;PMS7003;62058;48.406;-4.514;2023-04-06T04:47:50;1.00;1.00;1.00
73749;PMS7003;62058;48.406;-4.514;2023-04-06T04:50:15;2.33;1.33;1.00
73749;PMS7003;62058;48.406;-4.514;2023-04-06T04:52:40;2.00;1.33;1.00
73749;PMS7003;62058;48.406;-4.514;2023-04-06T04:55:05;1.33;1.00;1.00
73749;PMS7003;62058;48.406;-4.514;2023-04-06T04:57:31;2.00;0.00;0.00
73749;PMS7003;62058;48.406;-4.514;2023-04-06T04:59:56;1.25;0.00;0.00
73749;PMS7003;62058;48.406;-4.514;2023-04-06T05:02:22;0.75;0.00;0.00
73749;PMS7003;62058;48.406;-4.514;2023-04-06T05:04:48;3.00;1.00;1.00
73749;PMS7003;62058;48.406;-4.514;2023-04-06T05:07:13;1.00;1.00;1.00
73749;PMS7003;62058;48.406;-4.514;2023-04-06T05:09:40;2.25;1.00;1.00
73749;PMS7003;62058;48.406;-4.514;2023-04-06T05:12:05;3.33;1.67;1.33
73749;PMS7003;62058;48.406;-4.514;2023-04-06T05:14:30;1.50;1.50;1.25
73749;PMS7003;62058;48.406;-4.514;2023-04-06T05:16:56;2.00;0.67;0.67
73749;PMS7003;62058;48.406;-4.514;2023-04-06T05:19:21;1.00;1.00;1.00
73749;PMS7003;62058;48.406;-4.514;2023-04-06T05:21:46;2.50;1.00;1.00
73749;PMS7003;62058;48.406;-4.514;2023-04-06T05:24:11;0.00;0.00;0.00
73749;PMS7003;62058;48.406;-4.514;2023-04-06T05:26:37;2.00;1.67;1.67
73749;PMS7003;62058;48.406;-4.514;2023-04-06T05:29:02;0.75;0.75;0.75
73749;PMS7003;62058;48.406;-4.514;2023-04-06T05:31:27;5.00;0.33;0.33
73749;PMS7003;62058;48.406;-4.514;2023-04-06T05:33:53;1.50;0.50;0.50
73749;PMS7003;62058;48.406;-4.514;2023-04-06T05:36:18;3.33;1.00;1.00
73749;PMS7003;62058;48.406;-4.514;2023-04-06T05:38:44;5.00;2.25;2.25
73749;PMS7003;62058;48.406;-4.514;2023-04-06T05:41:09;1.50;1.00;1.00
73749;PMS7003;62058;48.406;-4.514;2023-04-06T05:43:35;3.75;2.50;2.00
73749;PMS7003;62058;48.406;-4.514;2023-04-06T05:46:00;2.00;0.00;0.00
73749;PMS7003;62058;48.406;-4.514;2023-04-06T05:48:25;3.25;2.00;2.00
73749;PMS7003;62058;48.406;-4.514;2023-04-06T05:50:51;6.00;3.00;2.00
73749;PMS7003;62058;48.406;-4.514;2023-04-06T05:53:16;3.25;2.00;2.00
73749;PMS7003;62058;48.406;-4.514;2023-04-06T05:55:42;4.50;2.50;2.50
73749;PMS7003;62058;48.406;-4.514;2023-04-06T05:58:07;2.75;1.25;1.00
73749;PMS7003;62058;48.406;-4.514;2023-04-06T06:00:32;1.75;1.75;1.50
73749;PMS7003;62058;48.406;-4.514;2023-04-06T06:02:58;4.25;2.50;2.50
73749;PMS7003;62058;48.406;-4.514;2023-04-06T06:05:23;4.67;1.00;1.00
73749;PMS7003;62058;48.406;-4.514;2023-04-06T06:07:48;2.67;2.67;2.67
73749;PMS7003;62058;48.406;-4.514;2023-04-06T06:10:13;1.33;1.33;1.33
73749;PMS7003;62058;48.406;-4.514;2023-04-06T06:12:39;5.75;2.75;2.75
73749;PMS7003;62058;48.406;-4.514;2023-04-06T06:15:04;4.00;3.00;2.00
73749;PMS7003;62058;48.406;-4.514;2023-04-06T06:17:30;6.00;3.50;3.50
73749;PMS7003;62058;48.406;-4.514;2023-04-06T06:19:55;5.33;2.67;2.33
73749;PMS7003;62058;48.406;-4.514;2023-04-06T06:22:20;4.33;3.00;3.00
73749;PMS7003;62058;48.406;-4.514;2023-04-06T06:24:46;2.00;2.00;2.00
73749;PMS7003;62058;48.406;-4.514;2023-04-06T06:27:11;2.00;2.00;1.50
73749;PMS7003;62058;48.406;-4.514;2023-04-06T06:29:36;1.50;1.25;1.00
73749;PMS7003;62058;48.406;-4.514;2023-04-06T06:32:01;3.67;2.00;1.33
73749;PMS7003;62058;48.406;-4.514;2023-04-06T06:34:27;3.75;2.50;2.00
73749;PMS7003;62058;48.406;-4.514;2023-04-06T06:36:52;6.00;2.00;2.00
73749;PMS7003;62058;48.406;-4.514;2023-04-06T06:39:19;3.00;2.50;2.00
73749;PMS7003;62058;48.406;-4.514;2023-04-06T06:41:44;2.00;1.00;1.00
73749;PMS7003;62058;48.406;-4.514;2023-04-06T06:44:10;3.00;2.00;1.00
73749;PMS7003;62058;48.406;-4.514;2023-04-06T06:46:35;3.75;3.00;2.50
73749;PMS7003;62058;48.406;-4.514;2023-04-06T06:49:00;3.00;3.00;3.00
73749;PMS7003;62058;48.406;-4.514;2023-04-06T06:51:26;3.00;2.00;2.00
73749;PMS7003;62058;48.406;-4.514;2023-04-06T06:53:51;4.00;1.00;1.00
73749;PMS7003;62058;48.406;-4.514;2023-04-06T06:56:16;1.00;1.00;1.00
73749;PMS7003;62058;48.406;-4.514;2023-04-06T06:58:41;3.00;3.00;3.00
73749;PMS7003;62058;48.406;-4.514;2023-04-06T07:01:07;1.00;1.00;1.00
73749;PMS7003;62058;48.406;-4.514;2023-04-06T07:03:32;2.50;2.50;2.50
73749;PMS7003;62058;48.406;-4.514;2023-04-06T07:05:57;3.67;3.00;2.00
73749;PMS7003;62058;48.406;-4.514;2023-04-06T07:08:23;5.00;3.00;3.00
73749;PMS7003;62058;48.406;-4.514;2023-04-06T07:10:49;3.00;2.75;2.75
73749;PMS7003;62058;48.406;-4.514;2023-04-06T07:13:15;1.50;1.50;1.25
73749;PMS7003;62058;48.406;-4.514;2023-04-06T07:15:46;3.00;3.00;2.50
73749;PMS7003;62058;48.406;-4.514;2023-04-06T07:18:11;2.00;2.00;2.00
73749;PMS7003;62058;48.406;-4.514;2023-04-06T07:20:37;3.75;2.50;2.00
73749;PMS7003;62058;48.406;-4.514;2023-04-06T07:23:02;4.25;2.00;1.50
73749;PMS7003;62058;48.406;-4.514;2023-04-06T07:25:27;1.25;1.25;1.00
73749;PMS7003;62058;48.406;-4.514;2023-04-06T07:27:53;2.00;2.00;2.00
73749;PMS7003;62058;48.406;-4.514;2023-04-06T07:30:18;3.50;3.00;3.00
73749;PMS7003;62058;48.406;-4.514;2023-04-06T07:32:44;2.75;2.75;2.75
73749;PMS7003;62058;48.406;-4.514;2023-04-06T07:35:10;2.00;2.00;2.00
73749;PMS7003;62058;48.406;-4.514;2023-04-06T07:37:35;2.00;2.00;1.50
73749;PMS7003;62058;48.406;-4.514;2023-04-06T07:40:00;2.25;2.00;2.00
73749;PMS7003;62058;48.406;-4.514;2023-04-06T07:42:26;3.00;2.00;2.00
73749;PMS7003;62058;48.406;-4.514;2023-04-06T07:44:51;4.67;3.67;3.33
73749;PMS7003;62058;48.406;-4.514;2023-04-06T07:47:16;4.00;3.00;3.00
73749;PMS7003;62058;48.406;-4.514;2023-04-06T07:49:41;6.33;3.00;2.00
73749;PMS7003;62058;48.406;-4.514;2023-04-06T07:52:07;4.67;3.33;3.33
73749;PMS7003;62058;48.406;-4.514;2023-04-06T07:54:32;1.33;1.33;1.33
73749;PMS7003;62058;48.406;-4.514;2023-04-06T07:56:59;11.00;3.00;2.75
73749;PMS7003;62058;48.406;-4.514;2023-04-06T07:59:25;6.00;3.33;3.33
73749;PMS7003;62058;48.406;-4.514;2023-04-06T08:01:50;4.00;2.00;2.00
73749;PMS7003;62058;48.406;-4.514;2023-04-06T08:04:15;7.00;3.00;2.00
73749;PMS7003;62058;48.406;-4.514;2023-04-06T08:06:40;3.00;1.67;1.00
73749;PMS7003;62058;48.406;-4.514;2023-04-06T08:09:06;1.75;0.50;0.50
73749;PMS7003;62058;48.406;-4.514;2023-04-06T08:11:31;0.00;0.00;0.00
73749;PMS7003;62058;48.406;-4.514;2023-04-06T08:13:57;0.00;0.00;0.00
73749;PMS7003;62058;48.406;-4.514;2023-04-06T08:16:22;0.50;0.00;0.00
73749;PMS7003;62058;48.406;-4.514;2023-04-06T08:18:47;1.00;0.00;0.00
73749;PMS7003;62058;48.406;-4.514;2023-04-06T08:21:14;2.75;0.00;0.00
73749;PMS7003;62058;48.406;-4.514;2023-04-06T08:23:39;0.00;0.00;0.00
73749;PMS7003;62058;48.406;-4.514;2023-04-06T08:26:05;0.00;0.00;0.00
73749;PMS7003;62058;48.406;-4.514;2023-04-06T08:28:30;1.00;0.00;0.00
73749;PMS7003;62058;48.406;-4.514;2023-04-06T08:30:55;3.50;0.00;0.00
73749;PMS7003;62058;48.406;-4.514;2023-04-06T08:33:21;1.25;0.00;0.00
73749;PMS7003;62058;48.406;-4.514;2023-04-06T08:35:46;2.67;0.67;0.67
73749;PMS7003;62058;48.406;-4.514;2023-04-06T08:38:11;0.75;0.00;0.00
73749;PMS7003;62058;48.406;-4.514;2023-04-06T08:40:39;0.00;0.00;0.00
73749;PMS7003;62058;48.406;-4.514;2023-04-06T08:43:09;0.00;0.00;0.00
73749;PMS7003;62058;48.406;-4.514;2023-04-06T08:45:35;4.00;1.75;1.75
73749;PMS7003;62058;48.406;-4.514;2023-04-06T08:48:00;0.75;0.00;0.00
73749;PMS7003;62058;48.406;-4.514;2023-04-06T08:50:28;7.50;5.50;4.75
73749;PMS7003;62058;48.406;-4.514;2023-04-06T08:52:54;3.25;2.50;2.50
73749;PMS7003;62058;48.406;-4.514;2023-04-06T08:55:20;4.00;1.00;0.00
73749;PMS7003;62058;48.406;-4.514;2023-04-06T08:57:47;1.00;1.00;1.00
73749;PMS7003;62058;48.406;-4.514;2023-04-06T09:00:13;1.50;1.00;1.00
73749;PMS7003;62058;48.406;-4.514;2023-04-06T09:02:39;0.75;0.25;0.00
73749;PMS7003;62058;48.406;-4.514;2023-04-06T09:05:06;0.00;0.00;0.00
73749;PMS7003;62058;48.406;-4.514;2023-04-06T09:07:32;4.00;0.00;0.00
73749;PMS7003;62058;48.406;-4.514;2023-04-06T09:09:57;0.67;0.67;0.67
73749;PMS7003;62058;48.406;-4.514;2023-04-06T09:12:29;1.00;0.00;0.00
73749;PMS7003;62058;48.406;-4.514;2023-04-06T09:14:55;3.00;0.25;0.25
73749;PMS7003;62058;48.406;-4.514;2023-04-06T09:17:21;3.50;0.50;0.50
73749;PMS7003;62058;48.406;-4.514;2023-04-06T09:19:47;0.00;0.00;0.00
73749;PMS7003;62058;48.406;-4.514;2023-04-06T09:22:12;5.33;0.00;0.00
73749;PMS7003;62058;48.406;-4.514;2023-04-06T09:24:47;2.00;0.67;0.67
73749;PMS7003;62058;48.406;-4.514;2023-04-06T09:27:13;6.00;1.00;1.00
73749;PMS7003;62058;48.406;-4.514;2023-04-06T09:29:40;0.75;0.00;0.00
73749;PMS7003;62058;48.406;-4.514;2023-04-06T09:32:06;3.00;0.00;0.00
73749;PMS7003;62058;48.406;-4.514;2023-04-06T09:34:32;0.00;0.00;0.00
73749;PMS7003;62058;48.406;-4.514;2023-04-06T09:36:57;0.75;0.00;0.00
73749;PMS7003;62058;48.406;-4.514;2023-04-06T09:39:23;0.00;0.00;0.00
73749;PMS7003;62058;48.406;-4.514;2023-04-06T09:41:52;4.25;0.00;0.00
73749;PMS7003;62058;48.406;-4.514;2023-04-06T09:44:17;1.00;1.00;0.75
73749;PMS7003;62058;48.406;-4.514;2023-04-06T09:46:44;3.25;0.00;0.00
73749;PMS7003;62058;48.406;-4.514;2023-04-06T09:49:10;0.00;0.00;0.00
73749;PMS7003;62058;48.406;-4.514;2023-04-06T09:51:37;1.00;0.00;0.00
73749;PMS7003;62058;48.406;-4.514;2023-04-06T09:54:02;0.00;0.00;0.00
73749;PMS7003;62058;48.406;-4.514;2023-04-06T09:59:20;3.25;1.00;1.00
73749;PMS7003;62058;48.406;-4.514;2023-04-06T10:01:46;0.25;0.00;0.00
73749;PMS7003;62058;48.406;-4.514;2023-04-06T10:04:55;2.50;0.25;0.00
73749;PMS7003;62058;48.406;-4.514;2023-04-06T10:07:01;1.25;0.75;0.00
73749;PMS7003;62058;48.406;-4.514;2023-04-06T10:09:28;0.00;0.00;0.00
73749;PMS7003;62058;48.406;-4.514;2023-04-06T10:11:56;4.25;0.25;0.25
73749;PMS7003;62058;48.406;-4.514;2023-04-06T10:14:23;1.00;1.00;1.00
73749;PMS7003;62058;48.406;-4.514;2023-04-06T10:16:48;0.00;0.00;0.00
73749;PMS7003;62058;48.406;-4.514;2023-04-06T10:19:18;0.50;0.00;0.00
73749;PMS7003;62058;48.406;-4.514;2023-04-06T10:21:47;0.75;0.00;0.00
73749;PMS7003;62058;48.406;-4.514;2023-04-06T10:24:14;0.00;0.00;0.00
73749;PMS7003;62058;48.406;-4.514;2023-04-06T10:26:41;0.50;0.00;0.00
73749;PMS7003;62058;48.406;-4.514;2023-04-06T10:29:06;2.25;0.50;0.00
73749;PMS7003;62058;48.406;-4.514;2023-04-06T10:31:31;0.25;0.00;0.00
73749;PMS7003;62058;48.406;-4.514;2023-04-06T10:34:00;3.25;0.00;0.00
73749;PMS7003;62058;48.406;-4.514;2023-04-06T10:36:26;1.50;0.00;0.00
73749;PMS7003;62058;48.406;-4.514;2023-04-06T10:38:56;0.50;0.00;0.00
73749;PMS7003;62058;48.406;-4.514;2023-04-06T10:41:22;1.75;0.00;0.00
73749;PMS7003;62058;48.406;-4.514;2023-04-06T10:43:54;4.00;0.33;0.00
73749;PMS7003;62058;48.406;-4.514;2023-04-06T10:46:24;0.00;0.00;0.00
73749;PMS7003;62058;48.406;-4.514;2023-04-06T10:48:49;1.00;1.00;0.50
73749;PMS7003;62058;48.406;-4.514;2023-04-06T10:51:16;3.00;0.00;0.00
73749;PMS7003;62058;48.406;-4.514;2023-04-06T10:53:43;2.00;0.00;0.00
73749;PMS7003;62058;48.406;-4.514;2023-04-06T10:56:09;5.25;0.00;0.00
73749;PMS7003;62058;48.406;-4.514;2023-04-06T10:58:36;0.00;0.00;0.00
73749;PMS7003;62058;48.406;-4.514;2023-04-06T11:01:02;2.25;0.25;0.00
73749;PMS7003;62058;48.406;-4.514;2023-04-06T11:03:27;0.75;0.00;0.00
73749;PMS7003;62058;48.406;-4.514;2023-04-06T11:05:52;4.50;0.50;0.25
73749;PMS7003;62058;48.406;-4.514;2023-04-06T11:08:29;0.00;0.00;0.00
73749;PMS7003;62058;48.406;-4.514;2023-04-06T11:11:10;0.00;0.00;0.00
73749;PMS7003;62058;48.406;-4.514;2023-04-06T11:13:44;2.25;0.00;0.00
73749;PMS7003;62058;48.406;-4.514;2023-04-06T11:16:13;2.00;0.00;0.00
73749;PMS7003;62058;48.406;-4.514;2023-04-06T11:18:46;0.50;0.25;0.00
73749;PMS7003;62058;48.406;-4.514;2023-04-06T11:21:11;1.50;0.00;0.00
73749;PMS7003;62058;48.406;-4.514;2023-04-06T11:23:36;3.00;0.00;0.00
73749;PMS7003;62058;48.406;-4.514;2023-04-06T11:26:02;1.67;0.00;0.00
73749;PMS7003;62058;48.406;-4.514;2023-04-06T11:28:27;2.75;0.00;0.00
73749;PMS7003;62058;48.406;-4.514;2023-04-06T11:30:52;0.00;0.00;0.00
73749;PMS7003;62058;48.406;-4.514;2023-04-06T11:33:21;1.25;0.00;0.00
73749;PMS7003;62058;48.406;-4.514;2023-04-06T11:35:47;0.50;0.50;0.00
73749;PMS7003;62058;48.406;-4.514;2023-04-06T11:38:13;0.75;0.00;0.00
73749;PMS7003;62058;48.406;-4.514;2023-04-06T11:40:38;0.75;0.00;0.00
73749;PMS7003;62058;48.406;-4.514;2023-04-06T11:43:03;2.00;0.00;0.00
73749;PMS7003;62058;48.406;-4.514;2023-04-06T11:45:38;2.75;0.00;0.00
73749;PMS7003;62058;48.406;-4.514;2023-04-06T11:48:04;1.00;1.00;0.00
73749;PMS7003;62058;48.406;-4.514;2023-04-06T11:50:32;0.75;0.00;0.00
73749;PMS7003;62058;48.406;-4.514;2023-04-06T11:53:01;1.75;0.00;0.00
73749;PMS7003;62058;48.406;-4.514;2023-04-06T11:55:27;3.25;0.00;0.00
73749;PMS7003;62058;48.406;-4.514;2023-04-06T11:57:53;0.67;0.00;0.00
73749;PMS7003;62058;48.406;-4.514;2023-04-06T12:00:18;0.00;0.00;0.00
73749;PMS7003;62058;48.406;-4.514;2023-04-06T12:02:47;0.50;0.00;0.00
73749;PMS7003;62058;48.406;-4.514;2023-04-06T12:05:12;0.50;0.00;0.00
73749;PMS7003;62058;48.406;-4.514;2023-04-06T12:07:37;2.00;0.00;0.00
73749;PMS7003;62058;48.406;-4.514;2023-04-06T12:10:03;2.25;0.00;0.00
73749;PMS7003;62058;48.406;-4.514;2023-04-06T12:12:28;3.50;0.00;0.00
73749;PMS7003;62058;48.406;-4.514;2023-04-06T12:14:55;0.00;0.00;0.00
73749;PMS7003;62058;48.406;-4.514;2023-04-06T12:17:20;1.50;0.00;0.00
73749;PMS7003;62058;48.406;-4.514;2023-04-06T12:19:45;2.75;0.50;0.00
73749;PMS7003;62058;48.406;-4.514;2023-04-06T12:22:10;2.50;0.00;0.00
73749;PMS7003;62058;48.406;-4.514;2023-04-06T12:24:36;0.00;0.00;0.00
73749;PMS7003;62058;48.406;-4.514;2023-04-06T12:27:01;2.00;0.00;0.00
73749;PMS7003;62058;48.406;-4.514;2023-04-06T12:29:26;0.00;0.00;0.00
73749;PMS7003;62058;48.406;-4.514;2023-04-06T12:31:52;0.00;0.00;0.00
73749;PMS7003;62058;48.406;-4.514;2023-04-06T12:34:18;1.00;0.00;0.00
73749;PMS7003;62058;48.406;-4.514;2023-04-06T12:36:43;1.00;0.00;0.00
73749;PMS7003;62058;48.406;-4.514;2023-04-06T12:39:08;1.33;0.67;0.00
73749;PMS7003;62058;48.406;-4.514;2023-04-06T12:41:33;0.00;0.00;0.00
73749;PMS7003;62058;48.406;-4.514;2023-04-06T12:43:59;4.50;0.50;0.50
73749;PMS7003;62058;48.406;-4.514;2023-04-06T12:46:24;1.00;0.00;0.00
73749;PMS7003;62058;48.406;-4.514;2023-04-06T12:48:50;3.00;0.00;0.00
73749;PMS7003;62058;48.406;-4.514;2023-04-06T12:51:18;0.00;0.00;0.00
73749;PMS7003;62058;48.406;-4.514;2023-04-06T12:53:43;0.50;0.00;0.00
73749;PMS7003;62058;48.406;-4.514;2023-04-06T12:56:13;0.00;0.00;0.00
73749;PMS7003;62058;48.406;-4.514;2023-04-06T12:58:38;2.50;0.00;0.00
73749;PMS7003;62058;48.406;-4.514;2023-04-06T13:01:05;3.00;0.00;0.00
73749;PMS7003;62058;48.406;-4.514;2023-04-06T13:03:31;1.00;0.00;0.00
73749;PMS7003;62058;48.406;-4.514;2023-04-06T13:05:56;2.33;0.00;0.00
73749;PMS7003;62058;48.406;-4.514;2023-04-06T13:08:21;0.00;0.00;0.00
73749;PMS7003;62058;48.406;-4.514;2023-04-06T13:10:47;1.00;0.00;0.00
73749;PMS7003;62058;48.406;-4.514;2023-04-06T13:13:25;0.00;0.00;0.00
73749;PMS7003;62058;48.406;-4.514;2023-04-06T13:15:51;1.00;0.00;0.00
73749;PMS7003;62058;48.406;-4.514;2023-04-06T13:18:16;0.00;0.00;0.00
73749;PMS7003;62058;48.406;-4.514;2023-04-06T13:20:42;0.00;0.00;0.00
73749;PMS7003;62058;48.406;-4.514;2023-04-06T13:23:07;0.50;0.00;0.00
73749;PMS7003;62058;48.406;-4.514;2023-04-06T13:25:33;0.00;0.00;0.00
73749;PMS7003;62058;48.406;-4.514;2023-04-06T13:27:58;0.00;0.00;0.00
73749;PMS7003;62058;48.406;-4.514;2023-04-06T13:30:23;0.50;0.00;0.00
73749;PMS7003;62058;48.406;-4.514;2023-04-06T13:32:49;0.00;0.00;0.00
73749;PMS7003;62058;48.406;-4.514;2023-04-06T13:35:14;0.25;0.00;0.00
73749;PMS7003;62058;48.406;-4.514;2023-04-06T13:37:40;1.00;0.00;0.00
73749;PMS7003;62058;48.406;-4.514;2023-04-06T13:40:05;0.00;0.00;0.00
73749;PMS7003;62058;48.406;-4.514;2023-04-06T13:42:31;0.00;0.00;0.00
73749;PMS7003;62058;48.406;-4.514;2023-04-06T13:44:56;1.00;0.00;0.00
73749;PMS7003;62058;48.406;-4.514;2023-04-06T13:47:21;0.00;0.00;0.00
73749;PMS7003;62058;48.406;-4.514;2023-04-06T13:49:49;0.00;0.00;0.00
73749;PMS7003;62058;48.406;-4.514;2023-04-06T13:52:15;0.00;0.00;0.00
73749;PMS7003;62058;48.406;-4.514;2023-04-06T13:54:41;1.00;0.00;0.00
73749;PMS7003;62058;48.406;-4.514;2023-04-06T13:57:06;1.00;0.00;0.00
73749;PMS7003;62058;48.406;-4.514;2023-04-06T13:59:33;0.00;0.00;0.00
73749;PMS7003;62058;48.406;-4.514;2023-04-06T14:01:58;0.00;0.00;0.00
73749;PMS7003;62058;48.406;-4.514;2023-04-06T14:04:23;1.00;0.00;0.00